sensor_id;sensor_type;location;lat;lon;timestamp;P1;durP1;ratioP1;P2;durP2;ratioP2
16965;SDS011;8599;47.852;12.070;2023-07-13T00:02:05;2.60;;;2.10;;
16965;SDS011;8599;47.852;12.070;2023-07-13T00:04:32;1.63;;;1.50;;
16965;SDS011;8599;47.852;12.070;2023-07-13T00:06:59;3.58;;;1.85;;
16965;SDS011;8599;47.852;12.070;2023-07-13T00:09:26;2.92;;;1.67;;
16965;SDS011;8599;47.852;12.070;2023-07-13T00:11:55;2.65;;;1.95;;
16965;SDS011;8599;47.852;12.070;2023-07-13T00:14:23;3.90;;;2.03;;
16965;SDS011;8599;47.852;12.070;2023-07-13T00:16:50;2.78;;;1.92;;
16965;SDS011;8599;47.852;12.070;2023-07-13T00:19:17;4.00;;;1.75;;
16965;SDS011;8599;47.852;12.070;2023-07-13T00:21:44;8.30;;;1.73;;
16965;SDS011;8599;47.852;12.070;2023-07-13T00:24:12;2.97;;;1.65;;
16965;SDS011;8599;47.852;12.070;2023-07-13T00:26:43;3.28;;;1.80;;
16965;SDS011;8599;47.852;12.070;2023-07-13T00:29:12;1.98;;;1.77;;
16965;SDS011;8599;47.852;12.070;2023-07-13T00:31:39;3.13;;;1.98;;
16965;SDS011;8599;47.852;12.070;2023-07-13T00:34:06;3.05;;;1.52;;
16965;SDS011;8599;47.852;12.070;2023-07-13T00:36:33;3.72;;;1.48;;
16965;SDS011;8599;47.852;12.070;2023-07-13T00:39:00;2.10;;;1.55;;
16965;SDS011;8599;47.852;12.070;2023-07-13T00:41:28;5.45;;;1.83;;
16965;SDS011;8599;47.852;12.070;2023-07-13T00:43:55;1.10;;;1.10;;
16965;SDS011;8599;47.852;12.070;2023-07-13T00:46:25;2.72;;;1.48;;
16965;SDS011;8599;47.852;12.070;2023-07-13T00:48:53;2.97;;;1.48;;
16965;SDS011;8599;47.852;12.070;2023-07-13T00:51:25;3.42;;;1.92;;
16965;SDS011;8599;47.852;12.070;2023-07-13T00:53:56;2.47;;;1.75;;
16965;SDS011;8599;47.852;12.070;2023-07-13T00:56:25;2.27;;;1.77;;
16965;SDS011;8599;47.852;12.070;2023-07-13T00:58:53;5.95;;;1.70;;
16965;SDS011;8599;47.852;12.070;2023-07-13T01:01:21;3.10;;;1.52;;
16965;SDS011;8599;47.852;12.070;2023-07-13T01:03:49;3.67;;;1.70;;
16965;SDS011;8599;47.852;12.070;2023-07-13T01:06:16;3.50;;;1.67;;
16965;SDS011;8599;47.852;12.070;2023-07-13T01:08:43;1.90;;;1.40;;
16965;SDS011;8599;47.852;12.070;2023-07-13T01:11:10;1.83;;;1.73;;
16965;SDS011;8599;47.852;12.070;2023-07-13T01:13:37;1.55;;;1.30;;
16965;SDS011;8599;47.852;12.070;2023-07-13T01:16:05;1.58;;;1.48;;
16965;SDS011;8599;47.852;12.070;2023-07-13T01:18:40;1.83;;;1.42;;
16965;SDS011;8599;47.852;12.070;2023-07-13T01:21:08;3.00;;;1.20;;
16965;SDS011;8599;47.852;12.070;2023-07-13T01:23:35;1.42;;;1.20;;
16965;SDS011;8599;47.852;12.070;2023-07-13T01:26:02;1.80;;;1.60;;
16965;SDS011;8599;47.852;12.070;2023-07-13T01:28:29;1.10;;;1.10;;
16965;SDS011;8599;47.852;12.070;2023-07-13T01:30:57;2.90;;;1.30;;
16965;SDS011;8599;47.852;12.070;2023-07-13T01:33:25;2.03;;;1.42;;
16965;SDS011;8599;47.852;12.070;2023-07-13T01:35:52;1.33;;;1.10;;
16965;SDS011;8599;47.852;12.070;2023-07-13T01:38:21;1.60;;;1.50;;
16965;SDS011;8599;47.852;12.070;2023-07-13T01:40:49;2.58;;;1.52;;
16965;SDS011;8599;47.852;12.070;2023-07-13T01:43:17;4.57;;;1.33;;
16965;SDS011;8599;47.852;12.070;2023-07-13T01:45:44;1.80;;;1.30;;
16965;SDS011;8599;47.852;12.070;2023-07-13T01:48:11;1.63;;;1.52;;
16965;SDS011;8599;47.852;12.070;2023-07-13T01:50:38;2.33;;;1.40;;
16965;SDS011;8599;47.852;12.070;2023-07-13T01:53:05;1.30;;;1.20;;
16965;SDS011;8599;47.852;12.070;2023-07-13T01:55:33;1.98;;;1.55;;
16965;SDS011;8599;47.852;12.070;2023-07-13T01:58:00;1.35;;;1.25;;
16965;SDS011;8599;47.852;12.070;2023-07-13T02:00:27;1.50;;;1.40;;
16965;SDS011;8599;47.852;12.070;2023-07-13T02:02:54;1.75;;;1.63;;
16965;SDS011;8599;47.852;12.070;2023-07-13T02:05:21;1.70;;;1.60;;
16965;SDS011;8599;47.852;12.070;2023-07-13T02:07:48;1.77;;;1.45;;
16965;SDS011;8599;47.852;12.070;2023-07-13T02:10:15;3.55;;;1.45;;
16965;SDS011;8599;47.852;12.070;2023-07-13T02:12:44;1.85;;;1.30;;
16965;SDS011;8599;47.852;12.070;2023-07-13T02:15:11;2.03;;;1.45;;
16965;SDS011;8599;47.852;12.070;2023-07-13T02:17:38;2.08;;;1.60;;
16965;SDS011;8599;47.852;12.070;2023-07-13T02:20:05;2.45;;;1.52;;
16965;SDS011;8599;47.852;12.070;2023-07-13T02:22:33;4.10;;;1.50;;
16965;SDS011;8599;47.852;12.070;2023-07-13T02:25:00;1.58;;;1.27;;
16965;SDS011;8599;47.852;12.070;2023-07-13T02:27:27;3.55;;;1.42;;
16965;SDS011;8599;47.852;12.070;2023-07-13T02:29:55;1.67;;;1.30;;
16965;SDS011;8599;47.852;12.070;2023-07-13T02:32:21;1.50;;;1.30;;
16965;SDS011;8599;47.852;12.070;2023-07-13T02:34:50;1.73;;;1.45;;
16965;SDS011;8599;47.852;12.070;2023-07-13T02:37:17;1.77;;;1.60;;
16965;SDS011;8599;47.852;12.070;2023-07-13T02:39:44;2.50;;;1.37;;
16965;SDS011;8599;47.852;12.070;2023-07-13T02:42:10;2.20;;;1.45;;
16965;SDS011;8599;47.852;12.070;2023-07-13T02:44:37;4.00;;;1.75;;
16965;SDS011;8599;47.852;12.070;2023-07-13T02:47:06;1.98;;;1.52;;
16965;SDS011;8599;47.852;12.070;2023-07-13T02:49:33;7.28;;;2.33;;
16965;SDS011;8599;47.852;12.070;2023-07-13T02:51:59;2.37;;;1.93;;
16965;SDS011;8599;47.852;12.070;2023-07-13T02:54:26;7.07;;;1.88;;
16965;SDS011;8599;47.852;12.070;2023-07-13T02:56:53;2.55;;;2.20;;
16965;SDS011;8599;47.852;12.070;2023-07-13T02:59:20;3.45;;;1.88;;
16965;SDS011;8599;47.852;12.070;2023-07-13T03:01:47;1.90;;;1.77;;
16965;SDS011;8599;47.852;12.070;2023-07-13T03:04:15;2.38;;;1.80;;
16965;SDS011;8599;47.852;12.070;2023-07-13T03:06:44;2.83;;;1.93;;
16965;SDS011;8599;47.852;12.070;2023-07-13T03:09:11;3.33;;;2.17;;
16965;SDS011;8599;47.852;12.070;2023-07-13T03:11:38;3.67;;;2.30;;
16965;SDS011;8599;47.852;12.070;2023-07-13T03:14:05;3.07;;;2.70;;
16965;SDS011;8599;47.852;12.070;2023-07-13T03:16:33;4.67;;;2.50;;
16965;SDS011;8599;47.852;12.070;2023-07-13T03:19:00;3.65;;;1.77;;
16965;SDS011;8599;47.852;12.070;2023-07-13T03:21:28;2.20;;;2.00;;
16965;SDS011;8599;47.852;12.070;2023-07-13T03:23:54;3.08;;;2.28;;
16965;SDS011;8599;47.852;12.070;2023-07-13T03:26:21;2.05;;;1.83;;
16965;SDS011;8599;47.852;12.070;2023-07-13T03:28:48;3.17;;;2.20;;
16965;SDS011;8599;47.852;12.070;2023-07-13T03:31:16;6.15;;;2.20;;
16965;SDS011;8599;47.852;12.070;2023-07-13T03:33:45;4.25;;;2.00;;
16965;SDS011;8599;47.852;12.070;2023-07-13T03:36:13;3.08;;;2.25;;
16965;SDS011;8599;47.852;12.070;2023-07-13T03:38:45;3.47;;;2.20;;
16965;SDS011;8599;47.852;12.070;2023-07-13T03:41:13;3.13;;;1.98;;
16965;SDS011;8599;47.852;12.070;2023-07-13T03:43:40;2.45;;;2.17;;
16965;SDS011;8599;47.852;12.070;2023-07-13T03:46:06;2.80;;;1.92;;
16965;SDS011;8599;47.852;12.070;2023-07-13T03:48:33;1.92;;;1.75;;
16965;SDS011;8599;47.852;12.070;2023-07-13T03:51:00;2.40;;;2.20;;
16965;SDS011;8599;47.852;12.070;2023-07-13T03:53:27;3.72;;;2.22;;
16965;SDS011;8599;47.852;12.070;2023-07-13T03:55:55;5.68;;;2.08;;
16965;SDS011;8599;47.852;12.070;2023-07-13T03:58:26;4.03;;;2.58;;
16965;SDS011;8599;47.852;12.070;2023-07-13T04:00:55;4.20;;;1.92;;
16965;SDS011;8599;47.852;12.070;2023-07-13T04:03:23;2.42;;;2.17;;
16965;SDS011;8599;47.852;12.070;2023-07-13T04:05:53;9.13;;;2.60;;
16965;SDS011;8599;47.852;12.070;2023-07-13T04:08:23;8.88;;;2.50;;
16965;SDS011;8599;47.852;12.070;2023-07-13T04:10:50;2.75;;;2.30;;
16965;SDS011;8599;47.852;12.070;2023-07-13T04:13:18;3.97;;;2.13;;
16965;SDS011;8599;47.852;12.070;2023-07-13T04:15:45;2.45;;;2.22;;
16965;SDS011;8599;47.852;12.070;2023-07-13T04:18:12;6.20;;;2.50;;
16965;SDS011;8599;47.852;12.070;2023-07-13T04:20:38;2.87;;;2.30;;
16965;SDS011;8599;47.852;12.070;2023-07-13T04:23:05;3.47;;;2.43;;
16965;SDS011;8599;47.852;12.070;2023-07-13T04:25:32;4.30;;;2.67;;
16965;SDS011;8599;47.852;12.070;2023-07-13T04:27:59;5.30;;;2.42;;
16965;SDS011;8599;47.852;12.070;2023-07-13T04:30:27;4.35;;;2.58;;
16965;SDS011;8599;47.852;12.070;2023-07-13T04:32:54;3.25;;;2.28;;
16965;SDS011;8599;47.852;12.070;2023-07-13T04:35:21;5.50;;;2.90;;
16965;SDS011;8599;47.852;12.070;2023-07-13T04:37:48;6.07;;;2.88;;
16965;SDS011;8599;47.852;12.070;2023-07-13T04:40:15;6.30;;;2.60;;
16965;SDS011;8599;47.852;12.070;2023-07-13T04:42:43;2.33;;;2.10;;
16965;SDS011;8599;47.852;12.070;2023-07-13T04:45:10;3.37;;;2.37;;
16965;SDS011;8599;47.852;12.070;2023-07-13T04:47:39;3.20;;;2.20;;
16965;SDS011;8599;47.852;12.070;2023-07-13T04:50:06;3.05;;;2.20;;
16965;SDS011;8599;47.852;12.070;2023-07-13T04:52:36;2.63;;;2.25;;
16965;SDS011;8599;47.852;12.070;2023-07-13T04:55:03;1.77;;;1.67;;
16965;SDS011;8599;47.852;12.070;2023-07-13T04:57:30;2.97;;;2.15;;
16965;SDS011;8599;47.852;12.070;2023-07-13T04:59:57;5.68;;;2.20;;
16965;SDS011;8599;47.852;12.070;2023-07-13T05:02:26;3.05;;;2.13;;
16965;SDS011;8599;47.852;12.070;2023-07-13T05:04:54;2.60;;;2.40;;
16965;SDS011;8599;47.852;12.070;2023-07-13T05:07:21;3.47;;;1.90;;
16965;SDS011;8599;47.852;12.070;2023-07-13T05:09:48;4.38;;;2.35;;
16965;SDS011;8599;47.852;12.070;2023-07-13T05:12:15;2.45;;;2.10;;
16965;SDS011;8599;47.852;12.070;2023-07-13T05:14:41;3.13;;;2.00;;
16965;SDS011;8599;47.852;12.070;2023-07-13T05:17:09;2.90;;;2.13;;
16965;SDS011;8599;47.852;12.070;2023-07-13T05:19:36;5.10;;;2.23;;
16965;SDS011;8599;47.852;12.070;2023-07-13T05:22:04;5.90;;;3.17;;
16965;SDS011;8599;47.852;12.070;2023-07-13T05:24:31;4.65;;;2.25;;
16965;SDS011;8599;47.852;12.070;2023-07-13T05:26:58;7.95;;;2.30;;
16965;SDS011;8599;47.852;12.070;2023-07-13T05:29:25;4.13;;;2.50;;
16965;SDS011;8599;47.852;12.070;2023-07-13T05:31:52;4.10;;;2.20;;
16965;SDS011;8599;47.852;12.070;2023-07-13T05:34:19;3.30;;;2.28;;
16965;SDS011;8599;47.852;12.070;2023-07-13T05:36:46;2.47;;;1.95;;
16965;SDS011;8599;47.852;12.070;2023-07-13T05:39:14;2.83;;;2.00;;
16965;SDS011;8599;47.852;12.070;2023-07-13T05:41:41;2.90;;;2.00;;
16965;SDS011;8599;47.852;12.070;2023-07-13T05:44:08;4.03;;;2.45;;
16965;SDS011;8599;47.852;12.070;2023-07-13T05:46:35;4.20;;;2.67;;
16965;SDS011;8599;47.852;12.070;2023-07-13T05:49:02;4.22;;;1.85;;
16965;SDS011;8599;47.852;12.070;2023-07-13T05:51:29;4.03;;;1.90;;
16965;SDS011;8599;47.852;12.070;2023-07-13T05:53:56;2.60;;;2.00;;
16965;SDS011;8599;47.852;12.070;2023-07-13T05:56:24;3.40;;;2.38;;
16965;SDS011;8599;47.852;12.070;2023-07-13T05:58:51;4.57;;;2.08;;
16965;SDS011;8599;47.852;12.070;2023-07-13T06:01:18;3.00;;;2.17;;
16965;SDS011;8599;47.852;12.070;2023-07-13T06:03:45;9.15;;;2.92;;
16965;SDS011;8599;47.852;12.070;2023-07-13T06:06:12;2.85;;;2.20;;
16965;SDS011;8599;47.852;12.070;2023-07-13T06:08:39;4.22;;;2.50;;
16965;SDS011;8599;47.852;12.070;2023-07-13T06:11:07;2.78;;;2.50;;
16965;SDS011;8599;47.852;12.070;2023-07-13T06:13:39;3.58;;;2.50;;
16965;SDS011;8599;47.852;12.070;2023-07-13T06:16:06;2.65;;;2.20;;
16965;SDS011;8599;47.852;12.070;2023-07-13T06:18:34;2.77;;;2.07;;
16965;SDS011;8599;47.852;12.070;2023-07-13T06:21:05;2.63;;;1.90;;
16965;SDS011;8599;47.852;12.070;2023-07-13T06:23:33;2.88;;;2.30;;
16965;SDS011;8599;47.852;12.070;2023-07-13T06:26:00;3.28;;;2.25;;
16965;SDS011;8599;47.852;12.070;2023-07-13T06:28:26;3.58;;;2.30;;
16965;SDS011;8599;47.852;12.070;2023-07-13T06:30:55;5.00;;;2.40;;
16965;SDS011;8599;47.852;12.070;2023-07-13T06:33:22;4.35;;;2.00;;
16965;SDS011;8599;47.852;12.070;2023-07-13T06:35:49;3.67;;;1.85;;
16965;SDS011;8599;47.852;12.070;2023-07-13T06:38:16;3.92;;;2.10;;
16965;SDS011;8599;47.852;12.070;2023-07-13T06:40:42;4.75;;;2.17;;
16965;SDS011;8599;47.852;12.070;2023-07-13T06:43:09;3.53;;;1.77;;
16965;SDS011;8599;47.852;12.070;2023-07-13T06:45:40;8.45;;;2.13;;
16965;SDS011;8599;47.852;12.070;2023-07-13T06:48:09;2.45;;;1.80;;
16965;SDS011;8599;47.852;12.070;2023-07-13T06:50:35;5.22;;;2.40;;
16965;SDS011;8599;47.852;12.070;2023-07-13T06:53:02;3.47;;;2.45;;
16965;SDS011;8599;47.852;12.070;2023-07-13T06:55:29;3.25;;;1.95;;
16965;SDS011;8599;47.852;12.070;2023-07-13T06:57:56;3.17;;;2.25;;
16965;SDS011;8599;47.852;12.070;2023-07-13T07:00:24;3.90;;;2.10;;
16965;SDS011;8599;47.852;12.070;2023-07-13T07:02:51;7.10;;;2.13;;
16965;SDS011;8599;47.852;12.070;2023-07-13T07:05:19;6.68;;;2.10;;
16965;SDS011;8599;47.852;12.070;2023-07-13T07:07:47;2.90;;;2.47;;
16965;SDS011;8599;47.852;12.070;2023-07-13T07:10:13;2.92;;;2.13;;
16965;SDS011;8599;47.852;12.070;2023-07-13T07:12:40;3.30;;;2.00;;
16965;SDS011;8599;47.852;12.070;2023-07-13T07:15:07;3.28;;;2.10;;
16965;SDS011;8599;47.852;12.070;2023-07-13T07:17:35;2.63;;;1.90;;
16965;SDS011;8599;47.852;12.070;2023-07-13T07:20:02;2.53;;;2.03;;
16965;SDS011;8599;47.852;12.070;2023-07-13T07:22:30;2.25;;;1.73;;
16965;SDS011;8599;47.852;12.070;2023-07-13T07:24:57;6.13;;;3.03;;
16965;SDS011;8599;47.852;12.070;2023-07-13T07:27:24;4.93;;;2.00;;
16965;SDS011;8599;47.852;12.070;2023-07-13T07:29:51;3.63;;;2.08;;
16965;SDS011;8599;47.852;12.070;2023-07-13T07:32:18;6.18;;;2.40;;
16965;SDS011;8599;47.852;12.070;2023-07-13T07:34:45;4.68;;;2.28;;
16965;SDS011;8599;47.852;12.070;2023-07-13T07:37:13;2.65;;;2.13;;
16965;SDS011;8599;47.852;12.070;2023-07-13T07:39:42;5.72;;;2.47;;
16965;SDS011;8599;47.852;12.070;2023-07-13T07:42:09;2.45;;;2.25;;
16965;SDS011;8599;47.852;12.070;2023-07-13T07:44:35;3.78;;;2.10;;
16965;SDS011;8599;47.852;12.070;2023-07-13T07:47:02;3.75;;;2.05;;
16965;SDS011;8599;47.852;12.070;2023-07-13T07:49:30;5.65;;;2.80;;
16965;SDS011;8599;47.852;12.070;2023-07-13T07:51:56;5.57;;;2.85;;
16965;SDS011;8599;47.852;12.070;2023-07-13T07:54:23;2.53;;;2.13;;
16965;SDS011;8599;47.852;12.070;2023-07-13T07:56:51;2.20;;;1.98;;
16965;SDS011;8599;47.852;12.070;2023-07-13T07:59:18;4.78;;;2.13;;
16965;SDS011;8599;47.852;12.070;2023-07-13T08:01:45;2.03;;;1.70;;
16965;SDS011;8599;47.852;12.070;2023-07-13T08:04:15;2.40;;;2.10;;
16965;SDS011;8599;47.852;12.070;2023-07-13T08:06:42;3.22;;;2.05;;
16965;SDS011;8599;47.852;12.070;2023-07-13T08:09:09;4.50;;;2.08;;
16965;SDS011;8599;47.852;12.070;2023-07-13T08:11:35;3.47;;;1.73;;
16965;SDS011;8599;47.852;12.070;2023-07-13T08:14:04;2.00;;;1.90;;
16965;SDS011;8599;47.852;12.070;2023-07-13T08:16:30;6.03;;;2.03;;
16965;SDS011;8599;47.852;12.070;2023-07-13T08:18:57;3.63;;;2.03;;
16965;SDS011;8599;47.852;12.070;2023-07-13T08:21:24;4.18;;;2.08;;
16965;SDS011;8599;47.852;12.070;2023-07-13T08:23:51;3.22;;;1.88;;
16965;SDS011;8599;47.852;12.070;2023-07-13T08:26:18;3.15;;;1.95;;
16965;SDS011;8599;47.852;12.070;2023-07-13T08:28:45;2.05;;;1.70;;
16965;SDS011;8599;47.852;12.070;2023-07-13T08:31:14;5.55;;;1.75;;
16965;SDS011;8599;47.852;12.070;2023-07-13T08:33:41;3.33;;;1.60;;
16965;SDS011;8599;47.852;12.070;2023-07-13T08:36:07;4.72;;;2.10;;
16965;SDS011;8599;47.852;12.070;2023-07-13T08:38:34;2.00;;;1.40;;
16965;SDS011;8599;47.852;12.070;2023-07-13T08:41:03;3.90;;;2.17;;
16965;SDS011;8599;47.852;12.070;2023-07-13T08:43:37;6.47;;;1.88;;
16965;SDS011;8599;47.852;12.070;2023-07-13T08:46:07;2.75;;;1.70;;
16965;SDS011;8599;47.852;12.070;2023-07-13T08:48:42;4.45;;;2.17;;
16965;SDS011;8599;47.852;12.070;2023-07-13T08:51:17;4.18;;;1.60;;
16965;SDS011;8599;47.852;12.070;2023-07-13T08:53:54;3.05;;;1.70;;
16965;SDS011;8599;47.852;12.070;2023-07-13T08:56:25;2.80;;;1.80;;
16965;SDS011;8599;47.852;12.070;2023-07-13T08:58:55;3.47;;;1.33;;
16965;SDS011;8599;47.852;12.070;2023-07-13T09:01:24;2.03;;;1.25;;
16965;SDS011;8599;47.852;12.070;2023-07-13T09:03:59;3.97;;;1.73;;
16965;SDS011;8599;47.852;12.070;2023-07-13T09:06:34;1.35;;;1.25;;
16965;SDS011;8599;47.852;12.070;2023-07-13T09:09:09;2.58;;;1.60;;
16965;SDS011;8599;47.852;12.070;2023-07-13T09:11:44;3.20;;;1.67;;
16965;SDS011;8599;47.852;12.070;2023-07-13T09:14:23;1.55;;;1.45;;
16965;SDS011;8599;47.852;12.070;2023-07-13T09:16:59;1.98;;;1.50;;
16965;SDS011;8599;47.852;12.070;2023-07-13T09:19:30;2.42;;;1.40;;
16965;SDS011;8599;47.852;12.070;2023-07-13T09:21:59;1.95;;;1.48;;
16965;SDS011;8599;47.852;12.070;2023-07-13T09:24:34;4.47;;;1.70;;
16965;SDS011;8599;47.852;12.070;2023-07-13T09:27:08;3.25;;;1.83;;
16965;SDS011;8599;47.852;12.070;2023-07-13T09:29:42;2.72;;;1.27;;
16965;SDS011;8599;47.852;12.070;2023-07-13T09:32:13;5.25;;;1.60;;
16965;SDS011;8599;47.852;12.070;2023-07-13T09:34:51;1.20;;;1.10;;
16965;SDS011;8599;47.852;12.070;2023-07-13T09:37:19;4.38;;;1.48;;
16965;SDS011;8599;47.852;12.070;2023-07-13T09:39:48;1.85;;;1.25;;
16965;SDS011;8599;47.852;12.070;2023-07-13T09:42:17;2.65;;;1.42;;
16965;SDS011;8599;47.852;12.070;2023-07-13T09:44:51;3.28;;;1.75;;
16965;SDS011;8599;47.852;12.070;2023-07-13T09:47:20;4.45;;;1.90;;
16965;SDS011;8599;47.852;12.070;2023-07-13T09:49:54;3.60;;;2.08;;
16965;SDS011;8599;47.852;12.070;2023-07-13T09:52:23;1.75;;;1.65;;
16965;SDS011;8599;47.852;12.070;2023-07-13T09:54:51;3.63;;;1.95;;
16965;SDS011;8599;47.852;12.070;2023-07-13T09:57:24;4.90;;;2.17;;
16965;SDS011;8599;47.852;12.070;2023-07-13T09:59:52;3.80;;;1.73;;
16965;SDS011;8599;47.852;12.070;2023-07-13T10:02:25;2.95;;;1.70;;
16965;SDS011;8599;47.852;12.070;2023-07-13T10:04:59;6.43;;;1.63;;
16965;SDS011;8599;47.852;12.070;2023-07-13T10:07:28;2.25;;;1.60;;
16965;SDS011;8599;47.852;12.070;2023-07-13T10:09:56;2.20;;;1.60;;
16965;SDS011;8599;47.852;12.070;2023-07-13T10:12:26;6.67;;;2.07;;
16965;SDS011;8599;47.852;12.070;2023-07-13T10:14:55;2.75;;;1.67;;
16965;SDS011;8599;47.852;12.070;2023-07-13T10:17:25;1.90;;;1.50;;
16965;SDS011;8599;47.852;12.070;2023-07-13T10:20:00;2.40;;;1.60;;
16965;SDS011;8599;47.852;12.070;2023-07-13T10:22:32;2.60;;;1.65;;
16965;SDS011;8599;47.852;12.070;2023-07-13T10:25:11;2.95;;;1.58;;
16965;SDS011;8599;47.852;12.070;2023-07-13T10:27:43;2.33;;;1.70;;
16965;SDS011;8599;47.852;12.070;2023-07-13T10:30:12;2.22;;;1.63;;
16965;SDS011;8599;47.852;12.070;2023-07-13T10:32:43;1.70;;;1.50;;
16965;SDS011;8599;47.852;12.070;2023-07-13T10:35:12;4.88;;;1.92;;
16965;SDS011;8599;47.852;12.070;2023-07-13T10:37:43;5.45;;;2.90;;
16965;SDS011;8599;47.852;12.070;2023-07-13T10:40:16;4.68;;;1.30;;
16965;SDS011;8599;47.852;12.070;2023-07-13T10:42:47;3.17;;;1.63;;
16965;SDS011;8599;47.852;12.070;2023-07-13T10:45:17;2.95;;;1.80;;
16965;SDS011;8599;47.852;12.070;2023-07-13T10:47:46;2.47;;;1.52;;
16965;SDS011;8599;47.852;12.070;2023-07-13T10:50:17;5.65;;;2.17;;
16965;SDS011;8599;47.852;12.070;2023-07-13T10:52:46;6.50;;;1.93;;
16965;SDS011;8599;47.852;12.070;2023-07-13T10:55:31;2.78;;;1.88;;
16965;SDS011;8599;47.852;12.070;2023-07-13T10:58:03;1.60;;;1.50;;
16965;SDS011;8599;47.852;12.070;2023-07-13T11:00:43;4.25;;;1.77;;
16965;SDS011;8599;47.852;12.070;2023-07-13T11:03:14;2.60;;;1.98;;
16965;SDS011;8599;47.852;12.070;2023-07-13T11:05:44;2.78;;;2.05;;
16965;SDS011;8599;47.852;12.070;2023-07-13T11:08:18;3.63;;;1.75;;
16965;SDS011;8599;47.852;12.070;2023-07-13T11:10:51;5.38;;;2.33;;
16965;SDS011;8599;47.852;12.070;2023-07-13T11:13:38;4.05;;;1.90;;
16965;SDS011;8599;47.852;12.070;2023-07-13T11:16:34;3.03;;;1.83;;
16965;SDS011;8599;47.852;12.070;2023-07-13T11:19:25;2.72;;;1.73;;
16965;SDS011;8599;47.852;12.070;2023-07-13T11:22:11;1.70;;;1.50;;
16965;SDS011;8599;47.852;12.070;2023-07-13T11:24:50;1.67;;;1.50;;
16965;SDS011;8599;47.852;12.070;2023-07-13T11:27:33;2.17;;;1.58;;
16965;SDS011;8599;47.852;12.070;2023-07-13T11:30:24;3.35;;;2.20;;
16965;SDS011;8599;47.852;12.070;2023-07-13T11:33:07;2.88;;;2.10;;
16965;SDS011;8599;47.852;12.070;2023-07-13T11:35:41;2.15;;;1.40;;
16965;SDS011;8599;47.852;12.070;2023-07-13T11:38:15;2.10;;;1.50;;
16965;SDS011;8599;47.852;12.070;2023-07-13T11:40:45;3.88;;;1.65;;
16965;SDS011;8599;47.852;12.070;2023-07-13T11:43:14;4.53;;;1.88;;
16965;SDS011;8599;47.852;12.070;2023-07-13T11:45:42;2.13;;;1.38;;
16965;SDS011;8599;47.852;12.070;2023-07-13T11:48:20;3.00;;;1.80;;
16965;SDS011;8599;47.852;12.070;2023-07-13T11:50:50;3.42;;;2.33;;
16965;SDS011;8599;47.852;12.070;2023-07-13T11:53:21;5.90;;;2.28;;
16965;SDS011;8599;47.852;12.070;2023-07-13T11:55:49;2.92;;;1.48;;
16965;SDS011;8599;47.852;12.070;2023-07-13T11:58:17;3.85;;;2.03;;
16965;SDS011;8599;47.852;12.070;2023-07-13T12:00:48;4.30;;;1.70;;
16965;SDS011;8599;47.852;12.070;2023-07-13T12:03:17;5.97;;;2.00;;
16965;SDS011;8599;47.852;12.070;2023-07-13T12:05:56;4.13;;;2.03;;
16965;SDS011;8599;47.852;12.070;2023-07-13T12:08:26;4.85;;;2.03;;
16965;SDS011;8599;47.852;12.070;2023-07-13T12:10:58;2.95;;;1.60;;
16965;SDS011;8599;47.852;12.070;2023-07-13T12:13:34;3.03;;;1.80;;
16965;SDS011;8599;47.852;12.070;2023-07-13T12:16:07;1.58;;;1.38;;
16965;SDS011;8599;47.852;12.070;2023-07-13T12:18:37;3.67;;;1.90;;
16965;SDS011;8599;47.852;12.070;2023-07-13T12:21:05;2.45;;;1.70;;
16965;SDS011;8599;47.852;12.070;2023-07-13T12:23:39;2.42;;;1.70;;
16965;SDS011;8599;47.852;12.070;2023-07-13T12:26:10;2.70;;;2.05;;
16965;SDS011;8599;47.852;12.070;2023-07-13T12:28:38;3.22;;;1.63;;
16965;SDS011;8599;47.852;12.070;2023-07-13T12:31:20;7.15;;;2.35;;
16965;SDS011;8599;47.852;12.070;2023-07-13T12:33:55;3.40;;;1.77;;
16965;SDS011;8599;47.852;12.070;2023-07-13T12:36:23;5.70;;;2.08;;
16965;SDS011;8599;47.852;12.070;2023-07-13T12:38:51;2.80;;;1.52;;
16965;SDS011;8599;47.852;12.070;2023-07-13T12:41:18;4.07;;;2.03;;
16965;SDS011;8599;47.852;12.070;2023-07-13T12:43:45;2.08;;;1.52;;
16965;SDS011;8599;47.852;12.070;2023-07-13T12:46:17;4.13;;;1.15;;
16965;SDS011;8599;47.852;12.070;2023-07-13T12:48:47;3.53;;;1.25;;
16965;SDS011;8599;47.852;12.070;2023-07-13T12:51:15;2.22;;;1.17;;
16965;SDS011;8599;47.852;12.070;2023-07-13T12:53:43;5.57;;;1.20;;
16965;SDS011;8599;47.852;12.070;2023-07-13T12:56:18;1.88;;;1.00;;
16965;SDS011;8599;47.852;12.070;2023-07-13T12:58:49;3.35;;;1.40;;
16965;SDS011;8599;47.852;12.070;2023-07-13T13:01:20;2.88;;;1.40;;
16965;SDS011;8599;47.852;12.070;2023-07-13T13:03:49;9.73;;;1.45;;
16965;SDS011;8599;47.852;12.070;2023-07-13T13:06:21;2.63;;;1.10;;
16965;SDS011;8599;47.852;12.070;2023-07-13T13:08:50;1.40;;;1.20;;
16965;SDS011;8599;47.852;12.070;2023-07-13T13:11:19;3.72;;;1.10;;
16965;SDS011;8599;47.852;12.070;2023-07-13T13:13:48;4.07;;;1.73;;
16965;SDS011;8599;47.852;12.070;2023-07-13T13:16:17;2.97;;;1.10;;
16965;SDS011;8599;47.852;12.070;2023-07-13T13:18:46;2.67;;;0.77;;
16965;SDS011;8599;47.852;12.070;2023-07-13T13:21:13;3.38;;;1.13;;
16965;SDS011;8599;47.852;12.070;2023-07-13T13:23:40;4.35;;;1.27;;
16965;SDS011;8599;47.852;12.070;2023-07-13T13:26:10;3.08;;;0.88;;
16965;SDS011;8599;47.852;12.070;2023-07-13T13:28:38;3.60;;;1.33;;
16965;SDS011;8599;47.852;12.070;2023-07-13T13:31:07;4.25;;;1.80;;
16965;SDS011;8599;47.852;12.070;2023-07-13T13:33:38;1.23;;;0.90;;
16965;SDS011;8599;47.852;12.070;2023-07-13T13:36:12;1.58;;;1.05;;
16965;SDS011;8599;47.852;12.070;2023-07-13T13:38:41;2.35;;;1.10;;
16965;SDS011;8599;47.852;12.070;2023-07-13T13:41:09;7.07;;;1.20;;
16965;SDS011;8599;47.852;12.070;2023-07-13T13:43:40;3.05;;;1.25;;
16965;SDS011;8599;47.852;12.070;2023-07-13T13:46:14;2.92;;;1.52;;
16965;SDS011;8599;47.852;12.070;2023-07-13T13:48:43;3.15;;;1.13;;
16965;SDS011;8599;47.852;12.070;2023-07-13T13:51:14;2.10;;;1.13;;
16965;SDS011;8599;47.852;12.070;2023-07-13T13:53:42;1.58;;;1.40;;
16965;SDS011;8599;47.852;12.070;2023-07-13T13:56:10;2.08;;;1.13;;
16965;SDS011;8599;47.852;12.070;2023-07-13T13:58:37;2.70;;;1.30;;
16965;SDS011;8599;47.852;12.070;2023-07-13T14:01:10;1.63;;;1.00;;
16965;SDS011;8599;47.852;12.070;2023-07-13T14:03:39;5.03;;;2.00;;
16965;SDS011;8599;47.852;12.070;2023-07-13T14:06:07;4.18;;;1.10;;
16965;SDS011;8599;47.852;12.070;2023-07-13T14:08:34;1.10;;;1.00;;
16965;SDS011;8599;47.852;12.070;2023-07-13T14:11:01;2.17;;;1.20;;
16965;SDS011;8599;47.852;12.070;2023-07-13T14:13:31;2.28;;;1.30;;
16965;SDS011;8599;47.852;12.070;2023-07-13T14:16:04;3.92;;;1.20;;
16965;SDS011;8599;47.852;12.070;2023-07-13T14:18:35;1.20;;;0.95;;
16965;SDS011;8599;47.852;12.070;2023-07-13T14:21:02;2.65;;;1.30;;
16965;SDS011;8599;47.852;12.070;2023-07-13T14:23:29;3.58;;;1.40;;
16965;SDS011;8599;47.852;12.070;2023-07-13T14:25:55;5.25;;;1.40;;
16965;SDS011;8599;47.852;12.070;2023-07-13T14:28:23;6.63;;;1.35;;
16965;SDS011;8599;47.852;12.070;2023-07-13T14:30:51;0.90;;;0.90;;
16965;SDS011;8599;47.852;12.070;2023-07-13T14:33:20;1.17;;;1.00;;
16965;SDS011;8599;47.852;12.070;2023-07-13T14:35:48;4.35;;;1.58;;
16965;SDS011;8599;47.852;12.070;2023-07-13T14:38:16;2.40;;;1.10;;
16965;SDS011;8599;47.852;12.070;2023-07-13T14:40:45;3.25;;;1.30;;
16965;SDS011;8599;47.852;12.070;2023-07-13T14:43:12;1.73;;;0.90;;
16965;SDS011;8599;47.852;12.070;2023-07-13T14:45:41;2.08;;;1.20;;
16965;SDS011;8599;47.852;12.070;2023-07-13T14:48:13;2.15;;;1.52;;
16965;SDS011;8599;47.852;12.070;2023-07-13T14:50:43;1.05;;;0.98;;
16965;SDS011;8599;47.852;12.070;2023-07-13T14:53:10;1.98;;;1.17;;
16965;SDS011;8599;47.852;12.070;2023-07-13T14:55:37;2.42;;;1.13;;
16965;SDS011;8599;47.852;12.070;2023-07-13T14:58:05;1.60;;;1.23;;
16965;SDS011;8599;47.852;12.070;2023-07-13T15:00:32;3.30;;;1.20;;